createdAt,value
2022-10-21T00:01:29.138Z,14.33
2022-10-21T00:03:59.262Z,14.40
2022-10-21T00:06:27.951Z,12.37
2022-10-21T00:08:56.685Z,10.03
2022-10-21T00:11:25.358Z,10.90
2022-10-21T00:13:54.097Z,11.47
2022-10-21T00:16:22.777Z,15.27
2022-10-21T00:18:51.412Z,11.37
2022-10-21T00:21:23.939Z,10.37
2022-10-21T00:23:52.626Z,9.17
2022-10-21T00:26:23.161Z,9.93
2022-10-21T00:28:57.872Z,10.90
2022-10-21T00:31:27.772Z,14.17
2022-10-21T00:33:56.992Z,9.73
2022-10-21T00:36:27.296Z,12.47
2022-10-21T00:38:58.858Z,14.67
2022-10-21T00:41:27.587Z,11.87
2022-10-21T00:44:02.724Z,9.90
2022-10-21T00:46:46.939Z,9.37
2022-10-21T00:49:25.862Z,12.30
2022-10-21T00:52:01.141Z,10.30
2022-10-21T00:54:32.574Z,12.07
2022-10-21T00:57:01.696Z,10.33
2022-10-21T00:59:37.223Z,10.07
2022-10-21T01:02:06.324Z,12.13
2022-10-21T01:04:35.320Z,13.77
2022-10-21T01:07:12.098Z,12.60
2022-10-21T01:09:40.929Z,12.83
2022-10-21T01:12:23.090Z,10.33
2022-10-21T01:14:59.540Z,12.87
2022-10-21T01:17:47.300Z,9.77
2022-10-21T01:20:58.705Z,11.60
2022-10-21T01:24:17.422Z,8.33
2022-10-21T01:27:21.710Z,11.73
2022-10-21T01:30:18.493Z,10.10
2022-10-21T01:33:11.959Z,11.63
2022-10-21T01:35:50.921Z,12.30
2022-10-21T01:38:29.769Z,13.07
2022-10-21T01:41:13.796Z,10.20
2022-10-21T01:43:51.693Z,12.70
2022-10-21T01:46:29.111Z,11.27
2022-10-21T01:49:05.577Z,12.07
2022-10-21T01:51:36.740Z,10.27
2022-10-21T01:54:12.117Z,12.80
2022-10-21T01:56:44.402Z,13.27
2022-10-21T01:59:17.240Z,11.67
2022-10-21T02:01:48.036Z,11.77
2022-10-21T02:04:20.665Z,14.03
2022-10-21T02:06:49.609Z,10.73
2022-10-21T02:09:18.481Z,10.73
2022-10-21T02:11:52.236Z,9.67
2022-10-21T02:14:27.339Z,10.50
2022-10-21T02:16:57.494Z,12.40
2022-10-21T02:19:28.881Z,12.60
2022-10-21T02:22:03.100Z,9.63
2022-10-21T02:24:43.560Z,11.33
2022-10-21T02:27:12.654Z,12.03
2022-10-21T02:29:44.849Z,13.57
2022-10-21T02:32:28.841Z,12.50
2022-10-21T02:35:18.628Z,12.97
2022-10-21T02:38:30.445Z,11.30
2022-10-21T02:41:04.356Z,10.27
2022-10-21T02:43:38.197Z,10.20
2022-10-21T02:46:11.436Z,13.63
2022-10-21T02:48:45.211Z,10.90
2022-10-21T02:51:16.825Z,14.97
2022-10-21T02:53:45.629Z,12.73
2022-10-21T02:56:14.450Z,10.67
2022-10-21T02:58:43.091Z,12.73
2022-10-21T03:01:11.851Z,12.73
2022-10-21T03:03:40.586Z,15.00
2022-10-21T03:06:09.193Z,10.70
2022-10-21T03:08:39.479Z,12.77
2022-10-21T03:11:08.359Z,11.63
2022-10-21T03:13:37.273Z,11.60
2022-10-21T03:16:07.166Z,12.00
2022-10-21T03:18:35.820Z,10.83
2022-10-21T03:21:04.504Z,12.70
2022-10-21T03:23:33.180Z,11.10
2022-10-21T03:26:03.240Z,10.83
2022-10-21T03:28:31.980Z,10.47
2022-10-21T03:31:00.653Z,9.00
2022-10-21T03:33:29.225Z,12.83
2022-10-21T03:35:57.877Z,9.90
2022-10-21T03:38:26.501Z,10.37
2022-10-21T03:40:55.488Z,11.73
2022-10-21T03:43:25.633Z,9.30
2022-10-21T03:45:54.245Z,10.77
2022-10-21T03:48:22.890Z,15.30
2022-10-21T03:50:51.806Z,11.67
2022-10-21T03:53:38.277Z,13.17
2022-10-21T03:56:09.581Z,11.63
2022-10-21T03:58:39.633Z,11.97
2022-10-21T04:01:08.356Z,11.97
2022-10-21T04:03:36.968Z,11.43
2022-10-21T04:06:06.070Z,12.93
2022-10-21T04:08:34.919Z,14.77
2022-10-21T04:11:03.713Z,14.80
2022-10-21T04:13:33.011Z,13.47
2022-10-21T04:18:46.101Z,13.57
2022-10-21T04:21:15.038Z,10.60
2022-10-21T04:23:45.354Z,11.50
2022-10-21T04:26:14.580Z,16.70
2022-10-21T04:28:43.945Z,12.50
2022-10-21T04:31:13.618Z,11.97
2022-10-21T04:33:43.109Z,13.20
2022-10-21T04:36:13.546Z,12.00
2022-10-21T04:38:42.465Z,13.10
2022-10-21T04:41:11.273Z,11.03
2022-10-21T04:43:40.844Z,14.63
2022-10-21T04:46:14.601Z,15.40
2022-10-21T04:48:45.955Z,14.23
2022-10-21T04:51:19.539Z,10.13
2022-10-21T04:53:48.494Z,13.83
2022-10-21T04:56:17.306Z,15.13
2022-10-21T04:58:47.960Z,11.37
2022-10-21T05:01:16.811Z,15.20
2022-10-21T05:03:58.737Z,11.70
2022-10-21T05:06:28.980Z,14.90
2022-10-21T05:08:58.334Z,13.23
2022-10-21T05:11:27.671Z,13.83
2022-10-21T05:13:58.652Z,13.10
2022-10-21T05:16:27.327Z,14.33
2022-10-21T05:18:56.009Z,14.53
2022-10-21T05:21:25.473Z,15.30
2022-10-21T05:23:55.637Z,14.43
2022-10-21T05:26:25.275Z,14.23
2022-10-21T05:28:53.891Z,17.17
2022-10-21T05:31:22.577Z,13.80
2022-10-21T05:33:52.194Z,16.40
2022-10-21T05:36:23.309Z,14.90
2022-10-21T05:38:59.070Z,14.03
2022-10-21T05:41:27.760Z,17.80
2022-10-21T05:43:56.467Z,17.17
2022-10-21T05:46:25.166Z,18.80
2022-10-21T05:48:53.747Z,16.90
2022-10-21T05:51:26.446Z,19.67
2022-10-21T05:53:55.068Z,15.07
2022-10-21T05:56:26.122Z,20.60
2022-10-21T05:58:55.350Z,19.13
2022-10-21T06:01:25.474Z,17.60
2022-10-21T06:03:54.873Z,17.33
2022-10-21T06:06:23.853Z,20.20
2022-10-21T06:08:53.729Z,17.90
2022-10-21T06:11:24.287Z,21.03
2022-10-21T06:13:52.918Z,19.87
2022-10-21T06:16:22.307Z,15.53
2022-10-21T06:18:51.257Z,16.73
2022-10-21T06:21:20.617Z,17.20
2022-10-21T06:23:49.436Z,20.10
2022-10-21T06:26:19.484Z,16.33
2022-10-21T06:28:49.896Z,17.77
2022-10-21T06:31:22.087Z,19.50
2022-10-21T06:33:51.682Z,21.97
2022-10-21T06:36:20.377Z,18.43
2022-10-21T06:38:48.969Z,16.40
2022-10-21T06:41:19.093Z,17.73
2022-10-21T06:43:49.109Z,20.43
2022-10-21T06:46:18.546Z,15.67
2022-10-21T06:48:47.190Z,17.90
2022-10-21T06:51:20.671Z,18.80
2022-10-21T06:53:53.522Z,14.77
2022-10-21T06:56:23.492Z,15.37
2022-10-21T06:58:54.165Z,17.47
2022-10-21T07:01:34.301Z,15.40
2022-10-21T07:04:06.093Z,16.80
2022-10-21T07:06:35.383Z,16.70
2022-10-21T07:09:04.244Z,21.60
2022-10-21T07:11:34.161Z,19.27
2022-10-21T07:14:04.821Z,20.40
2022-10-21T07:16:35.789Z,16.67
2022-10-21T07:19:05.596Z,16.37
2022-10-21T07:21:34.407Z,19.47
2022-10-21T07:24:03.466Z,15.50
2022-10-21T07:26:34.416Z,18.27
2022-10-21T07:29:05.501Z,15.83
2022-10-21T07:31:37.833Z,15.83
2022-10-21T07:34:09.447Z,20.03
2022-10-21T07:36:42.061Z,15.93
2022-10-21T07:39:38.215Z,15.57
2022-10-21T07:42:09.918Z,18.53
2022-10-21T07:44:40.379Z,15.63
2022-10-21T07:47:09.691Z,14.80
2022-10-21T07:49:39.189Z,13.90
2022-10-21T07:52:10.312Z,17.47
2022-10-21T07:54:39.264Z,14.63
2022-10-21T07:57:10.124Z,13.73
2022-10-21T07:59:40.174Z,17.63
2022-10-21T08:02:10.388Z,15.27
2022-10-21T08:04:40.245Z,17.87
2022-10-21T08:07:13.136Z,15.27
2022-10-21T08:09:43.655Z,16.63
2022-10-21T08:12:14.509Z,13.37
2022-10-21T08:14:45.819Z,14.73
2022-10-21T08:17:14.660Z,11.70
2022-10-21T08:19:43.684Z,14.03
2022-10-21T08:22:12.477Z,15.10
2022-10-21T08:24:42.394Z,12.37
2022-10-21T08:27:11.352Z,14.83
2022-10-21T08:29:41.399Z,13.97
2022-10-21T08:32:39.178Z,13.27
2022-10-21T08:35:08.903Z,12.90
2022-10-21T08:37:37.614Z,13.07
2022-10-21T08:40:08.204Z,12.10
2022-10-21T08:42:42.891Z,13.43
2022-10-21T08:45:21.111Z,10.73
2022-10-21T08:47:59.076Z,13.13
2022-10-21T08:50:36.731Z,10.87
2022-10-21T08:53:16.052Z,16.83
2022-10-21T08:55:46.810Z,11.53
2022-10-21T08:58:20.084Z,12.37
2022-10-21T09:00:54.636Z,14.83
2022-10-21T09:03:37.066Z,12.47
2022-10-21T09:06:20.096Z,12.17
2022-10-21T09:09:07.969Z,12.40
2022-10-21T09:11:54.509Z,12.83
2022-10-21T09:14:57.457Z,13.53
2022-10-21T09:17:58.860Z,11.63
2022-10-21T09:20:56.144Z,8.83
2022-10-21T09:23:56.937Z,10.70
2022-10-21T09:26:38.814Z,10.57
2022-10-21T09:29:33.041Z,12.93
2022-10-21T09:32:15.408Z,14.07
2022-10-21T09:34:56.550Z,10.77
2022-10-21T09:37:35.728Z,13.07
2022-10-21T09:40:17.242Z,16.97
2022-10-21T09:42:47.931Z,9.33
2022-10-21T09:45:33.374Z,15.37
2022-10-21T09:48:07.224Z,14.63
2022-10-21T09:50:37.025Z,12.03
2022-10-21T09:53:16.353Z,12.93
2022-10-21T09:55:48.119Z,12.83
2022-10-21T09:58:28.025Z,14.47
2022-10-21T10:00:58.773Z,15.43
2022-10-21T10:03:34.926Z,11.60
2022-10-21T10:06:06.368Z,10.00
2022-10-21T10:08:41.423Z,13.17
2022-10-21T10:11:28.580Z,10.27
2022-10-21T10:14:34.312Z,9.27
2022-10-21T10:17:29.037Z,16.53
2022-10-21T10:20:28.553Z,13.30
2022-10-21T10:23:17.754Z,11.43
2022-10-21T10:25:53.151Z,14.77
2022-10-21T10:28:26.879Z,12.73
2022-10-21T10:30:58.145Z,12.43
2022-10-21T10:33:32.440Z,14.43
2022-10-21T10:36:09.337Z,12.67
2022-10-21T10:38:45.444Z,12.47
2022-10-21T10:41:19.547Z,10.70
2022-10-21T10:43:52.919Z,12.00
2022-10-21T10:46:29.147Z,14.07
2022-10-21T10:49:17.445Z,12.67
2022-10-21T10:51:50.119Z,13.77
2022-10-21T10:54:22.640Z,14.40
2022-10-21T10:58:06.236Z,14.17
2022-10-21T11:00:46.141Z,17.60
2022-10-21T11:03:27.636Z,12.10
2022-10-21T11:06:08.613Z,10.93
2022-10-21T11:08:45.175Z,10.07
2022-10-21T11:11:29.812Z,11.17
2022-10-21T11:14:02.200Z,10.83
2022-10-21T11:17:00.130Z,12.80
2022-10-21T11:20:04.517Z,11.87
2022-10-21T11:22:51.616Z,13.97
2022-10-21T11:25:26.157Z,15.03
2022-10-21T11:28:14.045Z,16.63
2022-10-21T11:31:07.038Z,14.87
2022-10-21T11:33:49.954Z,17.33
2022-10-21T11:36:33.005Z,14.57
2022-10-21T11:39:44.779Z,16.27
2022-10-21T11:42:27.925Z,15.80
2022-10-21T11:45:18.848Z,15.50
2022-10-21T11:47:58.237Z,16.67
2022-10-21T11:50:38.743Z,13.43
2022-10-21T11:53:26.443Z,16.27
2022-10-21T11:56:15.150Z,16.60
2022-10-21T11:59:02.079Z,19.40
2022-10-21T12:01:51.794Z,15.97
2022-10-21T12:04:37.879Z,17.23
2022-10-21T12:07:44.568Z,20.63
2022-10-21T12:10:31.519Z,17.60
2022-10-21T12:13:07.661Z,20.53
2022-10-21T12:15:42.728Z,15.20
2022-10-21T12:18:19.076Z,16.40
2022-10-21T12:20:53.324Z,15.03
2022-10-21T12:23:25.996Z,18.63
2022-10-21T12:26:22.976Z,16.23
2022-10-21T12:29:02.513Z,19.30
2022-10-21T12:31:46.526Z,17.27
2022-10-21T12:34:16.583Z,18.63
2022-10-21T12:36:50.722Z,21.70
2022-10-21T12:39:53.032Z,19.77
2022-10-21T12:42:29.647Z,20.80
2022-10-21T12:44:58.598Z,21.57
2022-10-21T12:47:33.779Z,19.00
2022-10-21T12:50:19.481Z,21.03
2022-10-21T12:53:13.299Z,20.40
2022-10-21T12:55:51.416Z,20.53
2022-10-21T12:58:37.926Z,25.20
2022-10-21T13:01:09.254Z,26.30
2022-10-21T13:03:55.342Z,24.80
2022-10-21T13:06:54.333Z,21.60
2022-10-21T13:09:41.839Z,25.83
2022-10-21T13:12:30.552Z,26.83
2022-10-21T13:15:02.273Z,27.70
2022-10-21T13:17:51.748Z,26.13
2022-10-21T13:20:49.067Z,27.17
2022-10-21T13:23:37.070Z,23.40
2022-10-21T13:26:24.162Z,24.13
2022-10-21T13:29:06.707Z,26.03
2022-10-21T13:31:36.080Z,23.37
2022-10-21T13:34:07.132Z,22.57
2022-10-21T13:36:43.351Z,26.10
2022-10-21T13:39:28.656Z,22.70
2022-10-21T13:42:06.163Z,30.23
2022-10-21T13:44:39.713Z,23.00
2022-10-21T13:47:31.496Z,22.27
2022-10-21T13:50:14.500Z,20.77
2022-10-21T13:52:46.673Z,22.73
2022-10-21T13:55:21.871Z,25.97
2022-10-21T13:57:55.092Z,28.23
2022-10-21T14:00:27.797Z,26.70
2022-10-21T14:03:03.729Z,21.13
2022-10-21T14:05:39.038Z,24.70
2022-10-21T14:08:22.357Z,20.33
2022-10-21T14:11:00.400Z,22.30
2022-10-21T14:13:37.857Z,24.10
2022-10-21T14:16:10.665Z,19.57
2022-10-21T14:18:43.377Z,21.10
2022-10-21T14:21:21.258Z,20.17
2022-10-21T14:23:51.364Z,23.87
2022-10-21T14:26:20.920Z,20.03
2022-10-21T14:28:54.067Z,20.60
2022-10-21T14:31:30.982Z,18.10
2022-10-21T14:34:28.021Z,23.43
2022-10-21T14:37:09.462Z,22.97
2022-10-21T14:39:40.980Z,21.27
2022-10-21T14:42:25.055Z,25.10
2022-10-21T14:46:11.214Z,31.00
2022-10-21T14:48:52.139Z,21.33
2022-10-21T14:51:23.795Z,19.67
2022-10-21T14:53:57.592Z,20.67
2022-10-21T14:56:34.017Z,15.67
2022-10-21T14:59:17.768Z,14.97
2022-10-21T15:01:46.919Z,13.97
2022-10-21T15:04:44.186Z,17.60
2022-10-21T15:07:31.674Z,13.17
2022-10-21T15:10:20.118Z,11.37
2022-10-21T15:12:54.042Z,12.23
2022-10-21T15:15:54.109Z,16.63
2022-10-21T15:18:32.378Z,13.97
2022-10-21T15:21:06.558Z,14.50
2022-10-21T15:23:40.230Z,21.33
2022-10-21T15:26:19.931Z,13.03
2022-10-21T15:28:49.197Z,11.97
2022-10-21T15:31:22.102Z,11.40
2022-10-21T15:33:54.709Z,10.50
2022-10-21T15:36:25.531Z,14.37
2022-10-21T15:38:55.460Z,13.17
2022-10-21T15:41:27.088Z,12.97
2022-10-21T15:50:57.487Z,11.33
2022-10-21T15:53:27.053Z,14.27
2022-10-21T15:55:56.588Z,13.87
2022-10-21T15:58:26.962Z,14.10
2022-10-21T16:00:56.065Z,15.03
2022-10-21T16:03:25.478Z,18.43
2022-10-21T16:05:55.107Z,14.13
2022-10-21T16:08:25.497Z,14.33
2022-10-21T16:10:55.647Z,13.23
2022-10-21T16:13:25.199Z,14.50
2022-10-21T16:15:54.440Z,18.50
2022-10-21T16:18:26.799Z,21.43
2022-10-21T16:20:58.767Z,16.87
2022-10-21T16:23:29.051Z,15.57
2022-10-21T16:25:58.815Z,17.00
2022-10-21T16:28:28.131Z,18.00
2022-10-21T16:30:57.837Z,20.30
2022-10-21T16:33:26.471Z,22.03
2022-10-21T16:35:55.849Z,25.80
2022-10-21T16:38:29.308Z,22.23
2022-10-21T16:40:59.256Z,23.97
2022-10-21T16:43:31.410Z,23.57
2022-10-21T16:46:00.475Z,23.40
2022-10-21T16:48:30.542Z,21.23
2022-10-21T16:51:00.066Z,20.80
2022-10-21T16:53:31.980Z,18.53
2022-10-21T16:56:01.658Z,20.73
2022-10-21T16:58:30.880Z,23.10
2022-10-21T17:01:00.265Z,22.07
2022-10-21T17:03:30.166Z,20.60
2022-10-21T17:06:01.467Z,24.23
2022-10-21T17:08:34.561Z,19.80
2022-10-21T17:11:08.294Z,21.07
2022-10-21T17:13:38.334Z,20.40
2022-10-21T17:16:36.905Z,20.90
2022-10-21T17:19:08.083Z,18.53
2022-10-21T17:21:37.998Z,25.17
2022-10-21T17:24:10.260Z,18.97
2022-10-21T17:26:39.973Z,18.50
2022-10-21T17:29:10.668Z,24.83
2022-10-21T17:31:41.136Z,22.23
2022-10-21T17:34:25.780Z,15.40
2022-10-21T17:36:54.664Z,17.60
2022-10-21T17:39:24.819Z,19.17
2022-10-21T17:41:53.655Z,12.90
2022-10-21T17:44:22.620Z,14.17
2022-10-21T17:46:54.646Z,14.63
2022-10-21T17:49:24.594Z,14.20
2022-10-21T17:51:57.491Z,14.50
2022-10-21T17:54:29.232Z,15.90
2022-10-21T17:56:59.454Z,12.80
2022-10-21T17:59:29.488Z,13.80
2022-10-21T18:01:58.745Z,15.77
2022-10-21T18:04:28.543Z,18.80
2022-10-21T18:06:57.236Z,14.37
2022-10-21T18:09:27.512Z,20.83
2022-10-21T18:11:58.606Z,17.57
2022-10-21T18:14:29.535Z,17.10
2022-10-21T18:16:58.946Z,16.83
2022-10-21T18:19:29.123Z,15.60
2022-10-21T18:21:59.075Z,18.80
2022-10-21T18:24:29.918Z,19.90
2022-10-21T18:26:59.117Z,14.70
2022-10-21T18:29:28.332Z,16.07
2022-10-21T18:31:57.921Z,16.67
2022-10-21T18:34:27.715Z,17.67
2022-10-21T18:36:59.609Z,14.37
2022-10-21T18:39:30.300Z,13.70
2022-10-21T18:41:59.966Z,17.93
2022-10-21T18:44:30.458Z,12.27
2022-10-21T18:46:59.640Z,15.17
2022-10-21T18:49:28.310Z,13.37
2022-10-21T18:51:57.754Z,17.27
2022-10-21T18:54:27.238Z,17.43
2022-10-21T18:56:57.766Z,18.70
2022-10-21T18:59:26.903Z,14.10
2022-10-21T19:01:55.852Z,13.63
2022-10-21T19:04:25.828Z,16.50
2022-10-21T19:06:58.759Z,18.20
2022-10-21T19:09:28.990Z,16.43
2022-10-21T19:12:00.597Z,14.40
2022-10-21T19:14:29.579Z,13.90
2022-10-21T19:16:58.638Z,16.30
2022-10-21T19:19:27.861Z,15.47
2022-10-21T19:21:56.581Z,18.17
2022-10-21T19:24:27.331Z,22.60
2022-10-21T19:27:00.524Z,16.47
2022-10-21T19:29:29.592Z,16.27
2022-10-21T19:31:58.560Z,20.00
2022-10-21T19:34:28.845Z,29.37
2022-10-21T19:36:57.860Z,23.60
2022-10-21T19:39:26.744Z,20.70
2022-10-21T19:41:55.948Z,19.17
2022-10-21T19:44:26.200Z,12.00
2022-10-21T19:46:54.873Z,20.40
2022-10-21T19:49:24.055Z,18.80
2022-10-21T19:51:53.532Z,14.47
2022-10-21T19:54:22.416Z,16.30
2022-10-21T19:56:51.616Z,17.93
2022-10-21T19:59:20.950Z,17.50
2022-10-21T20:01:52.330Z,16.60
2022-10-21T20:04:22.802Z,12.70
2022-10-21T20:06:53.148Z,13.87
2022-10-21T20:09:22.423Z,13.37
2022-10-21T20:11:51.749Z,12.97
2022-10-21T20:14:21.005Z,12.37
2022-10-21T20:16:52.423Z,12.33
2022-10-21T20:19:21.303Z,12.00
2022-10-21T20:21:50.536Z,17.23
2022-10-21T20:24:19.772Z,16.00
2022-10-21T20:26:51.444Z,13.03
2022-10-21T20:29:20.287Z,17.40
2022-10-21T20:31:48.866Z,15.43
2022-10-21T20:34:18.897Z,15.97
2022-10-21T20:36:47.536Z,15.07
2022-10-21T20:39:16.246Z,13.70
2022-10-21T20:41:44.926Z,13.43
2022-10-21T20:44:17.435Z,13.93
2022-10-21T20:46:47.557Z,16.07
2022-10-21T20:49:16.332Z,16.20
2022-10-21T20:51:46.290Z,16.17
2022-10-21T20:54:20.413Z,19.53
2022-10-21T20:56:49.033Z,17.30
2022-10-21T20:59:18.543Z,15.53
2022-10-21T21:01:48.680Z,10.50
2022-10-21T21:04:20.778Z,16.93
2022-10-21T21:06:52.154Z,16.23
2022-10-21T21:09:57.838Z,19.13
2022-10-21T21:12:11.677Z,13.07
2022-10-21T21:14:40.605Z,10.90
2022-10-21T21:17:09.367Z,11.30
2022-10-21T21:19:39.833Z,10.73
2022-10-21T21:22:09.922Z,8.87
2022-10-21T21:24:38.536Z,14.87
2022-10-21T21:27:07.172Z,7.23
2022-10-21T21:29:36.168Z,10.47
2022-10-21T21:32:04.839Z,9.73
2022-10-21T21:34:33.650Z,12.30
2022-10-21T21:37:02.322Z,11.10
2022-10-21T21:39:32.361Z,10.37
2022-10-21T21:42:01.005Z,9.83
2022-10-21T21:44:29.767Z,12.77
2022-10-21T21:46:58.495Z,10.33
2022-10-21T21:49:27.068Z,9.93
2022-10-21T21:51:55.804Z,8.67
2022-10-21T21:54:24.453Z,9.17
2022-10-21T21:57:00.655Z,10.33
2022-10-21T21:59:43.102Z,11.47
2022-10-21T22:02:11.812Z,10.90
2022-10-21T22:04:40.606Z,13.10
2022-10-21T22:07:09.212Z,12.53
2022-10-21T22:09:37.854Z,13.00
2022-10-21T22:12:09.927Z,12.93
2022-10-21T22:14:40.385Z,9.87
2022-10-21T22:17:09.019Z,12.53
2022-10-21T22:19:38.003Z,8.90
2022-10-21T22:22:06.695Z,12.60
2022-10-21T22:24:36.434Z,8.03
2022-10-21T22:27:05.201Z,8.83
2022-10-21T22:29:35.233Z,16.83
2022-10-21T22:32:03.946Z,12.00
2022-10-21T22:34:32.529Z,10.27
2022-10-21T22:37:02.277Z,15.37
2022-10-21T22:39:31.048Z,11.53
2022-10-21T22:41:59.724Z,14.30
2022-10-21T22:44:28.456Z,17.23
2022-10-21T22:46:58.481Z,9.90
2022-10-21T22:49:27.353Z,9.50
2022-10-21T22:51:56.072Z,15.37
2022-10-21T22:54:48.177Z,15.07
2022-10-21T22:57:13.496Z,20.80
2022-10-21T22:59:44.052Z,10.20
2022-10-21T23:02:14.446Z,13.73
2022-10-21T23:04:43.062Z,21.10
2022-10-21T23:07:11.718Z,11.00
2022-10-21T23:09:40.343Z,22.50
2022-10-21T23:12:09.161Z,9.00
2022-10-21T23:14:37.860Z,10.27
2022-10-21T23:17:06.495Z,15.80
2022-10-21T23:19:36.587Z,8.17
2022-10-21T23:22:05.245Z,8.90
2022-10-21T23:24:33.911Z,7.03
2022-10-21T23:27:02.617Z,8.97
2022-10-21T23:29:31.358Z,8.77
2022-10-21T23:32:00.036Z,15.13
2022-10-21T23:34:28.608Z,6.13
2022-10-21T23:36:58.804Z,10.40
2022-10-21T23:39:27.584Z,8.57
2022-10-21T23:41:56.222Z,8.13
2022-10-21T23:44:24.867Z,7.40
2022-10-21T23:46:53.505Z,17.83
2022-10-21T23:49:22.171Z,6.83
2022-10-21T23:51:50.987Z,8.83
2022-10-21T23:54:21.037Z,5.73
2022-10-21T23:56:49.619Z,6.53
2022-10-21T23:59:18.253Z,6.87
